createdAt,value
2023-09-08T00:01:18.109Z,85.14
2023-09-08T00:03:49.958Z,85.22
2023-09-08T00:06:21.879Z,85.20
2023-09-08T00:08:52.836Z,85.23
2023-09-08T00:11:23.149Z,85.22
2023-09-08T00:13:53.656Z,85.28
2023-09-08T00:16:24.596Z,85.37
2023-09-08T00:18:56.057Z,85.40
2023-09-08T00:21:27.915Z,85.46
2023-09-08T00:23:59.961Z,85.40
2023-09-08T00:26:30.240Z,85.48
2023-09-08T00:29:01.029Z,85.45
2023-09-08T00:31:33.083Z,85.30
2023-09-08T00:34:05.026Z,85.37
2023-09-08T00:36:36.788Z,85.24
2023-09-08T00:39:08.039Z,85.28
2023-09-08T00:41:39.845Z,85.16
2023-09-08T00:44:11.535Z,85.24
2023-09-08T00:46:43.928Z,85.30
2023-09-08T00:49:14.781Z,85.26
2023-09-08T00:51:46.075Z,85.25
2023-09-08T00:54:18.813Z,85.17
2023-09-08T00:56:51.531Z,85.22
2023-09-08T00:59:23.537Z,85.13
2023-09-08T01:01:54.333Z,85.20
2023-09-08T01:04:24.880Z,85.07
2023-09-08T01:06:56.275Z,85.18
2023-09-08T01:09:27.551Z,85.14
2023-09-08T01:12:03.395Z,85.23
2023-09-08T01:14:35.806Z,85.24
2023-09-08T01:17:07.478Z,85.24
2023-09-08T01:19:38.206Z,85.23
2023-09-08T01:22:24.685Z,85.31
2023-09-08T01:25:25.437Z,85.26
2023-09-08T01:27:58.972Z,85.28
2023-09-08T01:30:32.205Z,85.29
2023-09-08T01:33:03.964Z,85.20
2023-09-08T01:35:35.797Z,85.28
2023-09-08T01:38:06.535Z,85.30
2023-09-08T01:40:37.386Z,85.37
2023-09-08T01:43:08.698Z,85.37
2023-09-08T01:45:40.453Z,85.42
2023-09-08T01:48:10.856Z,85.48
2023-09-08T01:50:41.669Z,85.51
2023-09-08T01:53:12.300Z,85.52
2023-09-08T01:55:44.230Z,85.54
2023-09-08T01:58:15.477Z,85.51
2023-09-08T02:00:45.982Z,85.52
2023-09-08T02:03:16.758Z,85.42
2023-09-08T02:05:48.750Z,85.49
2023-09-08T02:08:19.391Z,85.46
2023-09-08T02:10:49.692Z,85.44
2023-09-08T02:13:20.986Z,85.51
2023-09-08T02:15:52.608Z,85.56
2023-09-08T02:18:22.956Z,85.51
2023-09-08T02:20:53.269Z,85.54
2023-09-08T02:23:24.028Z,85.58
2023-09-08T02:25:54.481Z,85.57
2023-09-08T02:28:25.142Z,85.54
2023-09-08T02:30:57.615Z,85.50
2023-09-08T02:33:31.221Z,85.44
2023-09-08T02:36:10.761Z,85.55
2023-09-08T02:38:43.434Z,85.49
2023-09-08T02:41:14.157Z,85.43
2023-09-08T02:43:44.569Z,85.45
2023-09-08T02:46:15.705Z,85.57
2023-09-08T02:48:47.352Z,85.70
2023-09-08T02:51:18.817Z,85.84
2023-09-08T02:53:49.410Z,85.90
2023-09-08T02:56:20.633Z,85.90
2023-09-08T02:58:51.217Z,86.02
2023-09-08T03:01:25.802Z,86.03
2023-09-08T03:03:57.325Z,85.98
2023-09-08T03:06:28.798Z,86.01
2023-09-08T03:09:01.277Z,86.03
2023-09-08T03:11:33.040Z,86.00
2023-09-08T03:14:03.790Z,86.02
2023-09-08T03:16:34.554Z,86.09
2023-09-08T03:19:04.927Z,86.15
2023-09-08T03:21:36.160Z,86.14
2023-09-08T03:24:09.486Z,86.28
2023-09-08T03:26:42.392Z,86.36
2023-09-08T03:29:13.464Z,86.34
2023-09-08T03:31:44.742Z,86.48
2023-09-08T03:34:17.336Z,86.60
2023-09-08T03:36:49.427Z,86.69
2023-09-08T03:39:22.821Z,86.74
2023-09-08T03:41:53.783Z,86.76
2023-09-08T03:44:25.565Z,86.69
2023-09-08T03:46:57.778Z,86.55
2023-09-08T03:49:28.197Z,86.55
2023-09-08T03:51:58.211Z,86.53
2023-09-08T03:54:30.088Z,86.54
2023-09-08T03:57:00.588Z,86.52
2023-09-08T03:59:32.495Z,86.47
2023-09-08T04:02:04.490Z,86.52
2023-09-08T04:04:34.945Z,86.59
2023-09-08T04:07:05.786Z,86.50
2023-09-08T04:09:36.078Z,86.48
2023-09-08T04:12:08.249Z,86.49
2023-09-08T04:14:39.193Z,86.59
2023-09-08T04:17:10.696Z,86.49
2023-09-08T04:19:41.339Z,86.48
2023-09-08T04:22:12.659Z,86.48
2023-09-08T04:24:43.118Z,86.57
2023-09-08T04:27:15.729Z,86.56
2023-09-08T04:29:46.403Z,86.82
2023-09-08T04:32:16.711Z,87.17
2023-09-08T04:34:47.535Z,87.38
2023-09-08T04:37:19.384Z,87.28
2023-09-08T04:39:49.921Z,87.20
2023-09-08T04:42:20.295Z,87.35
2023-09-08T04:44:50.835Z,87.38
2023-09-08T04:47:21.272Z,87.40
2023-09-08T04:49:52.531Z,87.41
2023-09-08T04:52:23.266Z,87.43
2023-09-08T04:54:53.840Z,87.38
2023-09-08T04:57:24.385Z,87.44
2023-09-08T04:59:59.570Z,87.33
2023-09-08T05:02:30.795Z,87.50
2023-09-08T05:05:03.193Z,87.47
2023-09-08T05:07:34.552Z,87.51
2023-09-08T05:10:05.551Z,87.65
2023-09-08T05:12:38.371Z,87.74
2023-09-08T05:15:13.919Z,87.79
2023-09-08T05:17:46.382Z,87.79
2023-09-08T05:20:17.962Z,87.83
2023-09-08T05:22:49.426Z,87.79
2023-09-08T05:25:21.755Z,87.70
2023-09-08T05:27:52.559Z,87.74
2023-09-08T05:30:23.983Z,87.77
2023-09-08T05:32:54.866Z,87.87
2023-09-08T05:35:25.412Z,88.05
2023-09-08T05:37:55.441Z,88.03
2023-09-08T05:40:27.012Z,87.99
2023-09-08T05:42:57.509Z,87.93
2023-09-08T05:45:28.311Z,88.01
2023-09-08T05:47:59.923Z,88.04
2023-09-08T05:50:31.606Z,88.03
2023-09-08T05:53:02.752Z,87.97
2023-09-08T05:55:32.899Z,87.89
2023-09-08T05:58:03.529Z,87.93
2023-09-08T06:00:33.838Z,87.95
2023-09-08T06:03:05.014Z,88.03
2023-09-08T06:05:36.708Z,88.08
2023-09-08T06:08:08.903Z,88.16
2023-09-08T06:10:43.181Z,88.27
2023-09-08T06:13:13.792Z,88.36
2023-09-08T06:15:46.684Z,88.48
2023-09-08T06:18:17.373Z,88.65
2023-09-08T06:20:49.844Z,88.54
2023-09-08T06:23:24.682Z,88.58
2023-09-08T06:26:02.831Z,88.74
2023-09-08T06:28:36.840Z,88.77
2023-09-08T06:31:07.718Z,88.70
2023-09-08T06:33:40.070Z,88.50
2023-09-08T06:36:10.588Z,88.65
2023-09-08T06:38:40.981Z,88.80
2023-09-08T06:41:16.352Z,88.81
2023-09-08T06:43:47.794Z,88.77
2023-09-08T06:46:24.127Z,88.68
2023-09-08T06:48:54.817Z,88.78
2023-09-08T06:51:24.926Z,88.74
2023-09-08T06:53:59.718Z,88.83
2023-09-08T06:56:35.910Z,88.81
2023-09-08T06:59:06.722Z,88.64
2023-09-08T07:01:38.153Z,88.74
2023-09-08T07:04:10.602Z,88.72
2023-09-08T07:06:44.306Z,88.65
2023-09-08T07:09:16.678Z,88.61
2023-09-08T07:11:47.399Z,88.52
2023-09-08T07:14:17.793Z,88.56
2023-09-08T07:16:47.909Z,88.64
2023-09-08T07:19:18.700Z,88.76
2023-09-08T07:21:49.134Z,88.82
2023-09-08T07:24:19.762Z,88.74
2023-09-08T07:26:50.166Z,88.74
2023-09-08T07:29:21.090Z,88.70
2023-09-08T07:31:52.694Z,88.64
2023-09-08T07:34:24.235Z,88.61
2023-09-08T07:36:54.687Z,88.72
2023-09-08T07:39:25.000Z,88.74
2023-09-08T07:41:56.080Z,88.74
2023-09-08T07:44:26.888Z,88.82
2023-09-08T07:46:59.090Z,88.84
2023-09-08T07:49:29.612Z,88.88
2023-09-08T07:52:02.998Z,88.90
2023-09-08T07:54:33.976Z,88.89
2023-09-08T07:57:05.537Z,88.95
2023-09-08T07:59:38.088Z,88.97
2023-09-08T08:02:09.719Z,89.03
2023-09-08T08:04:40.546Z,89.09
2023-09-08T08:07:10.793Z,89.21
2023-09-08T08:09:41.723Z,89.23
2023-09-08T08:12:11.978Z,89.29
2023-09-08T08:14:43.138Z,89.34
2023-09-08T08:17:13.888Z,89.36
2023-09-08T08:19:47.734Z,89.36
2023-09-08T08:22:18.156Z,89.36
2023-09-08T08:24:49.355Z,89.34
2023-09-08T08:27:19.816Z,89.35
2023-09-08T08:29:50.011Z,89.36
2023-09-08T08:32:20.817Z,89.38
2023-09-08T08:34:51.413Z,89.50
2023-09-08T08:37:22.239Z,89.47
2023-09-08T08:39:53.532Z,89.48
2023-09-08T08:42:25.213Z,89.44
2023-09-08T08:44:55.747Z,89.44
2023-09-08T08:47:27.828Z,89.43
2023-09-08T08:50:03.487Z,89.46
2023-09-08T08:52:33.966Z,89.42
2023-09-08T08:55:04.531Z,89.40
2023-09-08T08:57:36.056Z,89.39
2023-09-08T09:00:15.504Z,89.41
2023-09-08T09:02:53.588Z,89.49
2023-09-08T09:05:31.465Z,89.46
2023-09-08T09:08:06.519Z,89.45
2023-09-08T09:10:37.712Z,89.52
2023-09-08T09:13:08.124Z,89.57
2023-09-08T09:15:39.451Z,89.48
2023-09-08T09:18:10.857Z,89.44
2023-09-08T09:20:43.847Z,89.42
2023-09-08T09:23:17.748Z,89.36
2023-09-08T09:25:48.423Z,89.34
2023-09-08T09:28:19.569Z,89.36
2023-09-08T09:30:53.698Z,89.31
2023-09-08T09:33:25.317Z,89.31
2023-09-08T09:35:57.473Z,89.30
2023-09-08T09:38:30.003Z,89.18
2023-09-08T09:41:01.099Z,89.07
2023-09-08T09:43:32.469Z,89.18
2023-09-08T09:46:03.147Z,89.25
2023-09-08T09:48:34.387Z,89.21
2023-09-08T09:51:22.237Z,89.24
2023-09-08T09:53:57.594Z,89.24
2023-09-08T09:56:29.266Z,89.01
2023-09-08T09:59:00.251Z,89.13
2023-09-08T10:01:32.379Z,88.97
2023-09-08T10:04:06.023Z,88.85
2023-09-08T10:06:43.180Z,88.82
2023-09-08T10:09:19.253Z,88.57
2023-09-08T10:11:55.606Z,88.52
2023-09-08T10:14:29.663Z,88.32
2023-09-08T10:17:04.025Z,88.17
2023-09-08T10:19:39.108Z,88.01
2023-09-08T10:22:15.234Z,87.78
2023-09-08T10:24:49.500Z,87.52
2023-09-08T10:27:23.586Z,87.32
2023-09-08T10:29:54.876Z,87.14
2023-09-08T10:32:25.541Z,87.28
2023-09-08T10:34:56.748Z,87.46
2023-09-08T10:37:33.056Z,87.66
2023-09-08T10:40:39.619Z,87.72
2023-09-08T10:43:10.352Z,87.60
2023-09-08T10:45:43.849Z,87.46
2023-09-08T10:48:15.906Z,87.21
2023-09-08T10:50:48.245Z,87.01
2023-09-08T10:53:22.967Z,86.41
2023-09-08T10:58:41.057Z,86.20
2023-09-08T11:01:18.368Z,85.99
2023-09-08T11:03:52.749Z,86.13
2023-09-08T11:06:24.964Z,86.27
2023-09-08T11:08:57.867Z,86.21
2023-09-08T11:11:29.180Z,86.26
2023-09-08T11:14:02.154Z,85.96
2023-09-08T11:16:35.765Z,85.83
2023-09-08T11:19:08.843Z,85.87
2023-09-08T11:21:42.318Z,85.65
2023-09-08T11:24:17.070Z,85.15
2023-09-08T11:26:49.630Z,85.19
2023-09-08T11:29:21.483Z,85.21
2023-09-08T11:31:57.158Z,85.41
2023-09-08T11:34:27.860Z,85.48
2023-09-08T11:36:59.747Z,85.51
2023-09-08T11:39:30.714Z,85.67
2023-09-08T11:42:03.707Z,85.78
2023-09-08T11:44:36.219Z,85.82
2023-09-08T11:47:11.609Z,85.91
2023-09-08T11:49:44.044Z,85.98
2023-09-08T11:52:14.400Z,85.90
2023-09-08T11:55:00.199Z,85.91
2023-09-08T11:57:37.094Z,85.92
2023-09-08T12:00:09.656Z,85.96
2023-09-08T12:02:41.336Z,85.96
2023-09-08T12:05:16.692Z,85.99
2023-09-08T12:07:47.620Z,85.92
2023-09-08T12:10:17.786Z,85.94
2023-09-08T12:12:59.434Z,85.96
2023-09-08T12:15:48.290Z,85.86
2023-09-08T12:18:21.053Z,85.69
2023-09-08T12:21:11.324Z,85.77
2023-09-08T12:24:00.052Z,85.75
2023-09-08T12:26:33.432Z,85.64
2023-09-08T12:29:07.262Z,85.71
2023-09-08T12:31:38.056Z,85.73
2023-09-08T12:34:11.671Z,85.56
2023-09-08T12:36:48.817Z,85.75
2023-09-08T12:39:19.187Z,85.54
2023-09-08T12:41:49.128Z,85.59
2023-09-08T12:44:20.194Z,85.49
2023-09-08T12:46:50.345Z,85.46
2023-09-08T12:49:21.204Z,85.38
2023-09-08T12:51:51.488Z,85.21
2023-09-08T12:54:21.736Z,85.08
2023-09-08T12:56:53.501Z,85.14
2023-09-08T12:59:24.025Z,84.94
2023-09-08T13:01:54.259Z,84.60
2023-09-08T13:04:25.411Z,84.37
2023-09-08T13:06:55.721Z,83.95
2023-09-08T13:09:26.992Z,83.94
2023-09-08T13:12:00.473Z,83.66
2023-09-08T13:14:31.864Z,83.73
2023-09-08T13:17:02.934Z,83.45
2023-09-08T13:19:34.976Z,83.38
2023-09-08T13:22:05.415Z,83.41
2023-09-08T13:24:37.949Z,83.40
2023-09-08T13:27:09.138Z,83.11
2023-09-08T13:29:39.459Z,83.05
2023-09-08T13:32:11.308Z,83.14
2023-09-08T13:34:41.680Z,83.06
2023-09-08T13:37:12.555Z,83.65
2023-09-08T13:39:43.276Z,83.58
2023-09-08T13:42:14.687Z,83.81
2023-09-08T13:44:45.928Z,83.59
2023-09-08T13:47:16.709Z,83.59
2023-09-08T13:49:47.825Z,83.35
2023-09-08T13:52:19.757Z,83.26
2023-09-08T13:55:06.586Z,82.97
2023-09-08T13:57:43.933Z,83.34
2023-09-08T14:00:17.401Z,83.11
2023-09-08T14:02:51.189Z,82.93
2023-09-08T14:05:28.283Z,82.49
2023-09-08T14:08:07.374Z,82.57
2023-09-08T14:10:51.187Z,82.14
2023-09-08T14:13:24.115Z,81.64
2023-09-08T14:15:55.865Z,81.89
2023-09-08T14:18:26.519Z,81.69
2023-09-08T14:20:57.418Z,82.32
2023-09-08T14:23:29.384Z,82.25
2023-09-08T14:26:00.361Z,82.74
2023-09-08T14:28:31.389Z,82.88
2023-09-08T14:31:02.763Z,82.92
2023-09-08T14:33:37.171Z,82.85
2023-09-08T14:36:08.145Z,82.93
2023-09-08T14:38:38.857Z,83.11
2023-09-08T14:41:09.385Z,82.96
2023-09-08T14:43:40.914Z,83.34
2023-09-08T14:46:12.765Z,83.75
2023-09-08T14:48:43.759Z,83.90
2023-09-08T14:51:15.502Z,83.56
2023-09-08T14:53:46.592Z,83.92
2023-09-08T14:56:16.642Z,83.01
2023-09-08T14:58:47.054Z,83.35
2023-09-08T15:01:18.011Z,83.82
2023-09-08T15:03:48.513Z,83.46
2023-09-08T15:06:19.097Z,83.27
2023-09-08T15:08:50.701Z,83.20
2023-09-08T15:11:21.204Z,82.92
2023-09-08T15:13:52.845Z,82.87
2023-09-08T15:16:25.869Z,83.15
2023-09-08T15:18:58.233Z,83.59
2023-09-08T15:21:32.595Z,84.30
2023-09-08T15:24:04.975Z,83.82
2023-09-08T15:26:36.235Z,83.48
2023-09-08T15:29:07.888Z,84.08
2023-09-08T15:31:40.273Z,83.85
2023-09-08T15:34:12.261Z,83.61
2023-09-08T15:36:43.474Z,84.32
2023-09-08T15:39:15.207Z,83.99
2023-09-08T15:41:49.275Z,83.88
2023-09-08T15:44:22.600Z,83.72
2023-09-08T15:46:55.771Z,83.66
2023-09-08T15:49:26.398Z,83.33
2023-09-08T15:52:13.506Z,82.80
2023-09-08T15:54:46.963Z,82.85
2023-09-08T15:57:17.653Z,82.78
2023-09-08T15:59:49.017Z,82.66
2023-09-08T16:02:19.851Z,82.51
2023-09-08T16:04:50.600Z,82.69
2023-09-08T16:07:22.250Z,83.17
2023-09-08T16:09:53.329Z,82.57
2023-09-08T16:12:24.399Z,82.43
2023-09-08T16:14:55.155Z,82.36
2023-09-08T16:17:28.042Z,82.06
2023-09-08T16:19:58.486Z,81.74
2023-09-08T16:22:29.247Z,82.25
2023-09-08T16:25:00.568Z,82.36
2023-09-08T16:27:32.381Z,81.25
2023-09-08T16:30:03.587Z,81.80
2023-09-08T16:32:34.528Z,81.43
2023-09-08T16:35:04.892Z,81.53
2023-09-08T16:37:35.674Z,81.64
2023-09-08T16:40:05.978Z,81.71
2023-09-08T16:42:37.529Z,81.36
2023-09-08T16:45:09.176Z,80.99
2023-09-08T16:47:41.760Z,81.73
2023-09-08T16:50:13.237Z,81.82
2023-09-08T16:52:44.168Z,81.50
2023-09-08T16:55:15.030Z,81.68
2023-09-08T16:57:48.448Z,81.80
2023-09-08T17:00:19.529Z,81.45
2023-09-08T17:02:50.441Z,81.19
2023-09-08T17:05:20.682Z,81.44
2023-09-08T17:07:54.614Z,82.29
2023-09-08T17:10:25.707Z,81.98
2023-09-08T17:12:57.360Z,81.78
2023-09-08T17:15:29.144Z,81.00
2023-09-08T17:18:00.722Z,82.03
2023-09-08T17:20:33.606Z,81.87
2023-09-08T17:23:05.459Z,81.90
2023-09-08T17:25:36.046Z,82.16
2023-09-08T17:28:06.940Z,81.97
2023-09-08T17:30:37.355Z,82.04
2023-09-08T17:33:07.903Z,81.84
2023-09-08T17:35:39.758Z,82.07
2023-09-08T17:38:13.466Z,82.36
2023-09-08T17:40:44.299Z,83.16
2023-09-08T17:43:15.030Z,83.34
2023-09-08T17:45:47.823Z,83.82
2023-09-08T17:48:18.446Z,83.38
2023-09-08T17:50:51.092Z,83.70
2023-09-08T17:53:22.725Z,83.38
2023-09-08T17:55:55.490Z,83.63
2023-09-08T17:58:26.065Z,83.98
2023-09-08T18:00:57.416Z,84.05
2023-09-08T18:03:29.938Z,83.86
2023-09-08T18:06:00.756Z,84.15
2023-09-08T18:08:32.190Z,84.46
2023-09-08T18:11:08.675Z,84.84
2023-09-08T18:13:42.079Z,84.84
2023-09-08T18:16:13.017Z,84.93
2023-09-08T18:18:45.363Z,85.04
2023-09-08T18:21:17.157Z,85.13
2023-09-08T18:23:49.717Z,85.19
2023-09-08T18:26:21.033Z,85.42
2023-09-08T18:28:52.297Z,85.28
2023-09-08T18:31:24.847Z,85.27
2023-09-08T18:33:56.584Z,85.30
2023-09-08T18:36:28.077Z,85.51
2023-09-08T18:38:59.798Z,85.77
2023-09-08T18:41:30.771Z,85.59
2023-09-08T18:44:03.171Z,85.22
2023-09-08T18:46:34.101Z,85.43
2023-09-08T18:49:05.829Z,85.61
2023-09-08T18:51:36.520Z,85.74
2023-09-08T18:54:07.053Z,85.67
2023-09-08T18:56:39.857Z,85.98
2023-09-08T18:59:10.363Z,85.73
2023-09-08T19:01:41.193Z,85.52
2023-09-08T19:04:11.821Z,85.73
2023-09-08T19:06:42.155Z,85.59
2023-09-08T19:09:12.790Z,85.92
2023-09-08T19:11:43.179Z,86.02
2023-09-08T19:14:13.670Z,86.18
2023-09-08T19:16:45.502Z,86.52
2023-09-08T19:19:16.308Z,86.77
2023-09-08T19:21:46.403Z,86.83
2023-09-08T19:24:18.405Z,87.11
2023-09-08T19:26:48.974Z,87.14
2023-09-08T19:29:21.504Z,87.11
2023-09-08T19:31:53.066Z,87.15
2023-09-08T19:34:23.650Z,87.13
2023-09-08T19:36:56.957Z,87.03
2023-09-08T19:39:27.428Z,87.31
2023-09-08T19:41:59.056Z,87.27
2023-09-08T19:44:30.224Z,87.32
2023-09-08T19:47:01.204Z,87.25
2023-09-08T19:49:31.978Z,87.43
2023-09-08T19:52:02.583Z,87.28
2023-09-08T19:54:32.903Z,87.30
2023-09-08T19:57:03.487Z,87.41
2023-09-08T19:59:34.015Z,87.56
2023-09-08T20:02:04.829Z,87.57
2023-09-08T20:04:35.620Z,87.66
2023-09-08T20:07:06.710Z,87.83
2023-09-08T20:09:37.291Z,87.77
2023-09-08T20:12:07.718Z,87.80
2023-09-08T20:14:38.328Z,87.86
2023-09-08T20:17:08.840Z,87.80
2023-09-08T20:19:40.135Z,87.83
2023-09-08T20:22:11.062Z,87.93
2023-09-08T20:24:44.414Z,88.06
2023-09-08T20:27:15.057Z,88.05
2023-09-08T20:29:46.422Z,88.15
2023-09-08T20:32:16.811Z,88.19
2023-09-08T20:34:48.631Z,88.27
2023-09-08T20:37:19.884Z,88.34
2023-09-08T20:39:50.728Z,88.35
2023-09-08T20:42:22.338Z,88.36
2023-09-08T20:44:53.777Z,88.48
2023-09-08T20:47:24.845Z,88.56
2023-09-08T20:49:57.714Z,88.57
2023-09-08T20:52:28.466Z,88.52
2023-09-08T20:54:58.608Z,88.78
2023-09-08T20:57:29.613Z,88.76
2023-09-08T21:00:00.193Z,88.71
2023-09-08T21:02:30.640Z,88.88
2023-09-08T21:05:01.299Z,88.90
2023-09-08T21:07:31.852Z,88.96
2023-09-08T21:10:02.689Z,88.98
2023-09-08T21:12:33.075Z,89.08
2023-09-08T21:15:04.091Z,89.08
2023-09-08T21:17:34.750Z,89.11
2023-09-08T21:20:06.757Z,89.26
2023-09-08T21:22:38.432Z,89.23
2023-09-08T21:25:10.382Z,89.17
2023-09-08T21:27:41.808Z,89.02
2023-09-08T21:30:12.705Z,88.80
2023-09-08T21:32:43.740Z,88.93
2023-09-08T21:35:14.150Z,88.77
2023-09-08T21:37:44.532Z,88.47
2023-09-08T21:40:15.544Z,88.24
2023-09-08T21:42:46.945Z,88.14
2023-09-08T21:45:18.258Z,88.05
2023-09-08T21:47:52.945Z,87.76
2023-09-08T21:50:24.815Z,87.77
2023-09-08T21:52:55.915Z,87.79
2023-09-08T21:55:28.003Z,87.62
2023-09-08T21:57:58.648Z,87.69
2023-09-08T22:00:30.060Z,87.84
2023-09-08T22:03:01.007Z,87.96
2023-09-08T22:05:31.558Z,88.01
2023-09-08T22:08:02.675Z,87.90
2023-09-08T22:10:33.057Z,87.73
2023-09-08T22:13:03.445Z,87.68
2023-09-08T22:15:33.870Z,87.61
2023-09-08T22:18:05.593Z,87.62
2023-09-08T22:20:36.163Z,87.71
2023-09-08T22:23:06.944Z,87.93
2023-09-08T22:25:37.439Z,88.01
2023-09-08T22:28:09.731Z,88.26
2023-09-08T22:30:40.846Z,88.38
2023-09-08T22:33:11.843Z,88.58
2023-09-08T22:35:43.350Z,88.69
2023-09-08T22:38:13.969Z,88.90
2023-09-08T22:40:44.327Z,88.82
2023-09-08T22:43:14.444Z,88.85
2023-09-08T22:45:45.535Z,89.03
2023-09-08T22:48:17.230Z,89.01
2023-09-08T22:50:48.887Z,89.05
2023-09-08T22:53:20.569Z,88.90
2023-09-08T22:55:51.921Z,88.74
2023-09-08T22:58:23.061Z,88.67
2023-09-08T23:00:54.150Z,88.63
2023-09-08T23:03:25.972Z,88.75
2023-09-08T23:05:57.446Z,88.77
2023-09-08T23:08:28.320Z,88.88
2023-09-08T23:11:00.530Z,88.98
2023-09-08T23:13:31.324Z,88.98
2023-09-08T23:16:01.948Z,89.15
2023-09-08T23:18:32.750Z,89.18
2023-09-08T23:21:04.083Z,89.20
2023-09-08T23:23:37.081Z,89.29
2023-09-08T23:26:07.849Z,89.17
2023-09-08T23:28:39.234Z,89.15
2023-09-08T23:31:10.714Z,89.08
2023-09-08T23:33:42.234Z,89.12
2023-09-08T23:36:12.816Z,88.91
2023-09-08T23:38:43.770Z,89.01
2023-09-08T23:41:14.684Z,89.12
2023-09-08T23:43:44.962Z,89.12
2023-09-08T23:46:15.674Z,89.12
2023-09-08T23:48:46.461Z,89.19
2023-09-08T23:51:18.482Z,89.32
2023-09-08T23:53:49.598Z,89.52
2023-09-08T23:56:23.662Z,89.59
2023-09-08T23:58:54.226Z,89.72
